createdAt,value
2023-02-14T00:02:12.083Z,102110.64
2023-02-14T00:07:17.940Z,102115.14
2023-02-14T00:12:23.754Z,102122.17
2023-02-14T00:17:29.495Z,102136.23
2023-02-14T00:22:35.409Z,102140.64
2023-02-14T00:27:41.016Z,102147.37
2023-02-14T00:32:47.968Z,102151.52
2023-02-14T00:37:56.014Z,102144.23
2023-02-14T00:43:05.246Z,102140.62
2023-02-14T00:48:11.638Z,102142.84
2023-02-14T00:53:17.530Z,102149.64
2023-02-14T00:58:23.266Z,102152.77
2023-02-14T01:03:31.448Z,102156.67
2023-02-14T01:08:37.033Z,102154.00
2023-02-14T01:13:44.168Z,102147.48
2023-02-14T01:18:50.126Z,102148.16
2023-02-14T01:23:58.186Z,102150.89
2023-02-14T01:29:05.126Z,102156.45
2023-02-14T01:34:10.736Z,102147.02
2023-02-14T01:39:18.524Z,102152.52
2023-02-14T01:44:58.490Z,102158.26
2023-02-14T01:50:09.330Z,102156.44
2023-02-14T01:55:19.883Z,102158.56
2023-02-14T02:00:44.894Z,102154.71
2023-02-14T02:05:56.345Z,102160.95
2023-02-14T02:11:03.448Z,102161.98
2023-02-14T02:16:29.409Z,102163.89
2023-02-14T02:22:07.570Z,102158.80
2023-02-14T02:27:36.362Z,102164.11
2023-02-14T02:33:08.561Z,102161.19
2023-02-14T02:38:32.356Z,102167.61
2023-02-14T02:43:50.426Z,102167.70
2023-02-14T02:49:02.480Z,102167.30
2023-02-14T02:54:16.544Z,102167.90
2023-02-14T02:59:25.060Z,102174.84
2023-02-14T03:04:54.633Z,102174.27
2023-02-14T03:10:06.786Z,102179.55
2023-02-14T03:15:20.085Z,102186.84
2023-02-14T03:20:34.294Z,102187.77
2023-02-14T03:25:46.218Z,102195.20
2023-02-14T03:30:59.111Z,102191.70
2023-02-14T03:36:11.537Z,102196.45
2023-02-14T03:41:22.093Z,102195.95
2023-02-14T03:46:34.207Z,102203.56
2023-02-14T03:51:41.833Z,102199.48
2023-02-14T03:56:51.293Z,102199.67
2023-02-14T04:02:01.428Z,102203.41
2023-02-14T04:07:13.568Z,102198.89
2023-02-14T04:12:32.338Z,102200.23
2023-02-14T04:18:01.961Z,102200.02
2023-02-14T04:23:07.546Z,102203.83
2023-02-14T04:28:13.706Z,102212.16
2023-02-14T04:33:19.221Z,102213.50
2023-02-14T04:38:24.994Z,102214.69
2023-02-14T04:43:30.834Z,102215.25
2023-02-14T04:48:36.847Z,102220.02
2023-02-14T04:53:43.282Z,102222.81
2023-02-14T04:58:49.013Z,102232.86
2023-02-14T05:03:54.864Z,102232.48
2023-02-14T05:09:00.949Z,102236.97
2023-02-14T05:14:07.010Z,102233.38
2023-02-14T05:19:12.556Z,102236.21
2023-02-14T05:24:18.589Z,102236.09
2023-02-14T05:29:24.243Z,102243.09
2023-02-14T05:34:30.428Z,102247.86
2023-02-14T05:39:36.037Z,102253.95
2023-02-14T05:44:41.588Z,102250.85
2023-02-14T05:49:47.395Z,102248.47
2023-02-14T05:54:53.139Z,102243.77
2023-02-14T05:59:58.697Z,102247.91
2023-02-14T06:05:04.420Z,102257.91
2023-02-14T06:10:12.800Z,102262.78
2023-02-14T06:15:19.391Z,102274.70
2023-02-14T06:20:25.880Z,102277.53
2023-02-14T06:25:32.832Z,102280.13
2023-02-14T06:30:38.714Z,102284.77
2023-02-14T06:35:44.542Z,102282.30
2023-02-14T06:40:50.198Z,102285.37
2023-02-14T06:45:56.067Z,102285.97
2023-02-14T06:51:02.257Z,102285.58
2023-02-14T06:56:09.061Z,102281.43
2023-02-14T07:01:15.359Z,102283.61
2023-02-14T07:06:21.259Z,102284.76
2023-02-14T07:11:28.877Z,102287.77
2023-02-14T07:16:34.457Z,102290.33
2023-02-14T07:21:40.021Z,102291.89
2023-02-14T07:26:45.700Z,102299.08
2023-02-14T07:31:51.525Z,102306.13
2023-02-14T07:36:57.455Z,102306.23
2023-02-14T07:42:03.600Z,102315.09
2023-02-14T07:47:11.915Z,102319.92
2023-02-14T07:52:18.101Z,102327.84
2023-02-14T07:57:23.766Z,102333.14
2023-02-14T08:02:29.671Z,102335.90
2023-02-14T08:07:35.394Z,102341.17
2023-02-14T08:12:59.888Z,102353.48
2023-02-14T08:18:05.763Z,102363.02
2023-02-14T08:23:12.262Z,102362.08
2023-02-14T08:28:20.738Z,102358.17
2023-02-14T08:33:26.683Z,102355.98
2023-02-14T08:38:32.292Z,102355.28
2023-02-14T08:43:38.361Z,102362.60
2023-02-14T08:48:44.426Z,102362.91
2023-02-14T08:53:51.966Z,102369.68
2023-02-14T08:58:57.640Z,102367.15
2023-02-14T09:04:04.170Z,102373.23
2023-02-14T09:09:10.083Z,102375.42
2023-02-14T09:14:16.236Z,102369.39
2023-02-14T09:19:22.043Z,102368.45
2023-02-14T09:24:28.156Z,102371.05
2023-02-14T09:29:34.308Z,102375.61
2023-02-14T09:34:59.272Z,102368.56
2023-02-14T09:40:06.059Z,102372.03
2023-02-14T09:45:15.609Z,102381.53
2023-02-14T09:50:25.901Z,102378.48
2023-02-14T09:55:39.877Z,102376.73
2023-02-14T10:00:54.563Z,102378.67
2023-02-14T10:06:05.954Z,102378.50
2023-02-14T10:11:15.711Z,102379.49
2023-02-14T10:16:31.317Z,102374.98
2023-02-14T10:21:41.999Z,102376.91
2023-02-14T10:26:50.497Z,102373.44
2023-02-14T10:32:00.500Z,102372.49
2023-02-14T10:37:22.383Z,102375.62
2023-02-14T10:42:37.312Z,102380.44
2023-02-14T10:47:51.761Z,102381.95
2023-02-14T10:53:07.180Z,102384.09
2023-02-14T10:58:16.428Z,102376.80
2023-02-14T11:03:22.967Z,102373.61
2023-02-14T11:08:32.728Z,102377.98
2023-02-14T11:13:40.111Z,102374.84
2023-02-14T11:18:45.813Z,102369.00
2023-02-14T11:23:52.477Z,102365.52
2023-02-14T11:29:01.096Z,102366.96
2023-02-14T11:34:27.895Z,102362.96
2023-02-14T11:39:35.593Z,102360.64
2023-02-14T11:44:56.412Z,102361.58
2023-02-14T11:50:06.096Z,102355.64
2023-02-14T11:55:25.972Z,102349.15
2023-02-14T12:00:32.665Z,102345.19
2023-02-14T12:05:47.648Z,102344.84
2023-02-14T12:11:04.118Z,102339.19
2023-02-14T12:16:23.946Z,102333.08
2023-02-14T12:21:48.149Z,102330.41
2023-02-14T12:27:02.566Z,102331.02
2023-02-14T12:32:20.292Z,102328.68
2023-02-14T12:37:56.062Z,102323.02
2023-02-14T12:43:23.414Z,102319.83
2023-02-14T12:48:43.541Z,102321.63
2023-02-14T12:54:03.651Z,102317.52
2023-02-14T12:59:28.435Z,102314.35
2023-02-14T13:05:01.860Z,102314.66
2023-02-14T13:10:17.567Z,102310.56
2023-02-14T13:15:35.348Z,102309.83
2023-02-14T13:20:50.783Z,102311.89
2023-02-14T13:26:01.442Z,102314.70
2023-02-14T13:31:07.483Z,102318.27
2023-02-14T13:36:14.975Z,102323.90
2023-02-14T13:41:22.201Z,102328.90
2023-02-14T13:46:51.030Z,102329.80
2023-02-14T13:51:58.708Z,102319.83
2023-02-14T13:57:23.174Z,102314.16
2023-02-14T14:02:45.453Z,102313.47
2023-02-14T14:08:30.654Z,102313.23
2023-02-14T14:14:04.355Z,102308.02
2023-02-14T14:19:38.982Z,102306.11
2023-02-14T14:24:54.578Z,102301.73
2023-02-14T14:30:01.923Z,102303.02
2023-02-14T14:35:17.963Z,102304.77
2023-02-14T14:40:29.656Z,102305.66
2023-02-14T14:45:35.975Z,102307.25
2023-02-14T14:50:46.450Z,102309.61
2023-02-14T14:55:53.311Z,102313.43
2023-02-14T15:00:59.177Z,102310.55
2023-02-14T15:06:09.346Z,102303.05
2023-02-14T15:11:38.947Z,102303.27
2023-02-14T15:16:49.644Z,102303.52
2023-02-14T15:21:55.881Z,102309.81
2023-02-14T15:27:02.305Z,102311.73
2023-02-14T15:32:11.140Z,102318.58
2023-02-14T15:37:18.397Z,102321.91
2023-02-14T15:42:29.317Z,102322.36
2023-02-14T15:47:35.065Z,102321.80
2023-02-14T15:52:43.472Z,102324.60
2023-02-14T15:57:59.547Z,102323.29
2023-02-14T16:03:08.875Z,102331.20
2023-02-14T16:08:30.951Z,102333.14
2023-02-14T16:13:37.863Z,102338.67
2023-02-14T16:18:45.526Z,102345.22
2023-02-14T16:24:12.269Z,102347.92
2023-02-14T16:29:22.707Z,102352.91
2023-02-14T16:34:29.819Z,102358.70
2023-02-14T16:39:38.897Z,102359.55
2023-02-14T16:44:44.857Z,102368.30
2023-02-14T16:49:52.977Z,102366.41
2023-02-14T16:54:58.584Z,102369.52
2023-02-14T17:00:06.568Z,102375.91
2023-02-14T17:05:12.476Z,102374.82
2023-02-14T17:10:20.385Z,102376.61
2023-02-14T17:15:28.750Z,102382.47
2023-02-14T17:20:35.055Z,102386.52
2023-02-14T17:25:40.888Z,102390.99
2023-02-14T17:30:47.546Z,102394.70
2023-02-14T17:35:53.388Z,102395.42
2023-02-14T17:40:59.702Z,102397.70
2023-02-14T17:46:07.589Z,102392.45
2023-02-14T17:51:13.924Z,102393.26
2023-02-14T17:56:23.146Z,102397.60
2023-02-14T18:01:32.948Z,102403.67
2023-02-14T18:06:40.338Z,102399.46
2023-02-14T18:11:46.736Z,102397.88
2023-02-14T18:16:52.376Z,102402.01
2023-02-14T18:21:58.371Z,102401.04
2023-02-14T18:27:06.273Z,102398.41
2023-02-14T18:32:12.349Z,102400.35
2023-02-14T18:37:18.789Z,102394.11
2023-02-14T18:42:24.702Z,102392.67
2023-02-14T18:47:31.127Z,102395.74
2023-02-14T18:52:38.397Z,102395.30
2023-02-14T18:57:44.183Z,102399.91
2023-02-14T19:02:50.792Z,102399.59
2023-02-14T19:07:59.073Z,102391.09
2023-02-14T19:13:06.019Z,102392.39
2023-02-14T19:18:11.733Z,102389.34
2023-02-14T19:23:17.578Z,102390.35
2023-02-14T19:28:24.042Z,102391.10
2023-02-14T19:33:29.907Z,102395.69
2023-02-14T19:38:35.639Z,102397.64
2023-02-14T19:43:41.639Z,102400.41
2023-02-14T19:48:48.666Z,102400.12
2023-02-14T19:53:55.864Z,102402.64
2023-02-14T19:59:07.700Z,102411.02
2023-02-14T20:04:15.392Z,102406.66
2023-02-14T20:09:22.155Z,102407.40
2023-02-14T20:14:31.437Z,102407.46
2023-02-14T20:19:38.800Z,102403.66
2023-02-14T20:24:44.759Z,102406.00
2023-02-14T20:29:51.884Z,102407.05
2023-02-14T20:34:58.817Z,102406.77
2023-02-14T20:40:07.143Z,102405.86
2023-02-14T20:45:12.939Z,102410.02
2023-02-14T20:50:19.186Z,102407.86
2023-02-14T20:55:27.198Z,102406.88
2023-02-14T21:00:33.139Z,102402.08
2023-02-14T21:05:38.730Z,102403.42
2023-02-14T21:10:44.288Z,102406.86
2023-02-14T21:15:50.058Z,102412.96
2023-02-14T21:21:02.940Z,102418.29
2023-02-14T21:26:08.782Z,102418.02
2023-02-14T21:31:17.929Z,102416.83
2023-02-14T21:36:25.871Z,102416.90
2023-02-14T21:41:32.924Z,102415.36
2023-02-14T21:46:41.199Z,102415.02
2023-02-14T21:51:47.932Z,102410.45
2023-02-14T21:56:53.790Z,102411.10
2023-02-14T22:01:59.444Z,102408.77
2023-02-14T22:07:05.489Z,102412.27
2023-02-14T22:12:11.248Z,102410.84
2023-02-14T22:17:17.120Z,102413.63
2023-02-14T22:22:23.470Z,102413.04
2023-02-14T22:27:30.339Z,102407.30
2023-02-14T22:32:51.220Z,102402.50
2023-02-14T22:37:57.207Z,102399.46
2023-02-14T22:43:02.962Z,102404.56
2023-02-14T22:48:09.147Z,102403.64
2023-02-14T22:53:14.847Z,102401.92
2023-02-14T22:58:20.568Z,102406.77
2023-02-14T23:03:26.165Z,102409.96
2023-02-14T23:08:32.080Z,102413.85
2023-02-14T23:13:57.155Z,102412.42
2023-02-14T23:19:21.801Z,102406.38
2023-02-14T23:24:27.673Z,102401.36
2023-02-14T23:29:33.810Z,102395.97
2023-02-14T23:34:41.619Z,102392.02
2023-02-14T23:39:47.104Z,102397.34
2023-02-14T23:44:52.734Z,102401.24
2023-02-14T23:49:59.000Z,102399.13
2023-02-14T23:55:05.092Z,102399.15
